createdAt,value
2023-05-19T04:20:52.393Z,14.50
2023-05-19T04:23:23.645Z,14.30
2023-05-19T04:25:54.482Z,14.30
2023-05-19T04:28:25.841Z,15.30
2023-05-19T04:31:14.576Z,14.30
2023-05-19T04:33:48.290Z,13.50
2023-05-19T04:36:22.393Z,14.60
2023-05-19T04:39:04.111Z,13.00
2023-05-19T04:41:35.555Z,15.30
2023-05-19T04:44:13.151Z,13.10
2023-05-19T04:46:43.170Z,14.40
2023-05-19T04:49:14.878Z,14.20
2023-05-19T04:51:56.699Z,14.00
2023-05-19T04:54:32.441Z,13.10
2023-05-19T04:57:01.987Z,13.80
2023-05-19T04:59:32.611Z,13.80
2023-05-19T05:02:04.827Z,13.60
2023-05-19T05:04:46.747Z,13.40
2023-05-19T05:07:17.219Z,13.50
2023-05-19T05:09:50.585Z,13.80
2023-05-19T05:14:55.351Z,12.50
2023-05-19T05:17:32.721Z,12.90
2023-05-19T05:20:09.028Z,12.90
2023-05-19T05:22:49.771Z,13.30
2023-05-19T05:25:27.717Z,12.80
2023-05-19T05:30:45.937Z,12.80
2023-05-19T05:34:08.068Z,14.70
2023-05-19T05:36:43.702Z,12.20
2023-05-19T05:39:14.547Z,11.50
2023-05-19T05:42:16.380Z,17.70
2023-05-19T05:44:53.484Z,11.80
2023-05-19T05:47:25.661Z,11.30
2023-05-19T05:50:00.452Z,12.60
2023-05-19T05:52:34.336Z,11.40
2023-05-19T05:55:11.183Z,12.20
2023-05-19T05:58:04.087Z,11.90
2023-05-19T06:00:46.246Z,12.30
2023-05-19T06:04:41.436Z,12.40
2023-05-19T06:07:36.910Z,16.10
2023-05-19T06:10:21.583Z,11.60
2023-05-19T06:13:30.604Z,11.80
2023-05-19T06:16:01.948Z,12.40
2023-05-19T06:19:18.913Z,13.90
2023-05-19T06:21:49.869Z,12.40
2023-05-19T06:24:29.052Z,12.50
2023-05-19T06:27:22.992Z,11.00
2023-05-19T06:30:09.275Z,11.30
2023-05-19T06:32:49.886Z,11.60
2023-05-19T06:35:48.420Z,10.60
2023-05-19T06:38:18.922Z,11.90
2023-05-19T06:40:49.649Z,12.10
2023-05-19T06:43:37.603Z,12.40
2023-05-19T06:46:07.111Z,11.80
2023-05-19T06:48:51.569Z,10.80
2023-05-19T06:51:25.880Z,11.40
2023-05-19T06:54:24.110Z,11.60
2023-05-19T06:56:53.642Z,12.60
2023-05-19T06:59:46.864Z,10.70
2023-05-19T07:02:17.328Z,11.30
2023-05-19T07:05:30.935Z,11.60
2023-05-19T07:08:32.005Z,11.70
2023-05-19T07:11:08.341Z,12.00
2023-05-19T07:13:51.675Z,11.40
2023-05-19T07:16:28.242Z,10.60
2023-05-19T07:18:59.715Z,10.50
2023-05-19T07:21:34.793Z,11.00
2023-05-19T07:24:07.062Z,12.10
2023-05-19T07:29:27.906Z,11.10
2023-05-19T07:34:38.432Z,11.50
2023-05-19T07:37:20.445Z,11.20
2023-05-19T07:39:51.075Z,9.90
2023-05-19T07:42:37.195Z,10.30
2023-05-19T07:45:08.704Z,12.30
2023-05-19T07:47:41.727Z,10.40
2023-05-19T07:50:21.323Z,10.30
2023-05-19T07:52:50.935Z,10.50
2023-05-19T07:55:26.458Z,10.40
2023-05-19T07:58:03.220Z,11.30
2023-05-19T08:00:35.755Z,10.10
2023-05-19T08:03:22.528Z,10.90
2023-05-19T08:06:15.672Z,10.00
2023-05-19T08:08:46.646Z,10.20
2023-05-19T08:11:25.303Z,16.80
2023-05-19T08:13:55.836Z,14.70
2023-05-19T08:16:26.371Z,10.70
2023-05-19T08:19:27.544Z,11.10
2023-05-19T08:22:10.753Z,15.50
2023-05-19T08:24:43.470Z,9.60
2023-05-19T08:27:14.256Z,10.60
2023-05-19T08:29:49.184Z,10.90
2023-05-19T08:32:23.901Z,10.00
2023-05-19T08:35:00.759Z,10.50
2023-05-19T08:37:34.006Z,11.30
2023-05-19T08:40:20.738Z,12.50
2023-05-19T08:42:51.938Z,10.80
2023-05-19T08:45:43.876Z,10.00
2023-05-19T08:48:17.442Z,10.30
2023-05-19T08:51:32.172Z,9.80
2023-05-19T08:55:10.678Z,10.20
2023-05-19T08:57:52.346Z,9.90
2023-05-19T09:00:25.556Z,10.20
2023-05-19T09:03:18.050Z,10.40
2023-05-19T09:06:52.304Z,9.40
2023-05-19T09:10:20.035Z,10.70
2023-05-19T09:38:52.035Z,8.40
2023-05-19T09:43:59.122Z,9.70
2023-05-19T09:46:30.481Z,9.80
2023-05-19T09:49:10.253Z,8.00
2023-05-19T09:51:42.232Z,8.50
2023-05-19T09:54:18.234Z,8.00
2023-05-19T09:57:03.894Z,9.90
2023-05-19T09:59:35.004Z,8.20
2023-05-19T10:04:56.061Z,8.00
2023-05-19T10:07:28.838Z,8.90
2023-05-19T10:10:01.970Z,7.80
2023-05-19T10:12:34.558Z,8.10
2023-05-19T10:15:54.286Z,7.60
2023-05-19T10:18:41.771Z,8.00
2023-05-19T10:21:18.601Z,7.80
2023-05-19T10:23:48.989Z,8.30
2023-05-19T10:26:31.184Z,7.80
2023-05-19T10:29:18.234Z,7.30
2023-05-19T10:31:52.702Z,8.80
2023-05-19T10:34:50.630Z,8.60
2023-05-19T10:37:35.151Z,6.70
2023-05-19T10:40:21.398Z,5.90
2023-05-19T10:43:42.040Z,7.10
2023-05-19T10:46:14.289Z,6.10
2023-05-19T10:48:47.220Z,6.60
2023-05-19T10:51:40.349Z,9.90
2023-05-19T10:54:40.946Z,6.70
2023-05-19T10:57:22.129Z,6.70
2023-05-19T10:59:54.506Z,9.00
2023-05-19T11:02:44.314Z,6.40
2023-05-19T11:05:21.466Z,6.90
2023-05-19T11:08:23.433Z,7.40
2023-05-19T11:10:57.472Z,6.70
2023-05-19T11:13:49.873Z,8.30
2023-05-19T11:17:12.294Z,7.40
2023-05-19T11:19:56.492Z,6.70
2023-05-19T11:22:36.174Z,6.10
2023-05-19T11:25:11.766Z,6.30
2023-05-19T11:27:57.675Z,6.70
2023-05-19T11:30:40.468Z,7.30
2023-05-19T11:33:40.385Z,6.80
2023-05-19T12:31:18.223Z,5.50
2023-05-19T12:33:54.552Z,4.50
2023-05-19T12:36:26.670Z,4.60
2023-05-19T12:39:05.212Z,4.40
2023-05-19T12:43:50.553Z,3.70
2023-05-19T12:47:15.354Z,4.30
2023-05-19T12:51:13.551Z,4.60
2023-05-19T12:54:08.303Z,5.00
2023-05-19T12:59:47.755Z,5.20
2023-05-19T13:02:26.532Z,5.00
2023-05-19T13:04:58.793Z,5.50
2023-05-19T13:07:28.637Z,5.90
2023-05-19T13:09:56.904Z,6.00
2023-05-19T13:12:25.656Z,6.90
2023-05-19T13:14:55.668Z,7.00
2023-05-19T13:17:26.335Z,11.10
2023-05-19T13:19:54.529Z,8.40
2023-05-19T13:22:26.737Z,6.90
2023-05-19T13:24:58.337Z,6.10
2023-05-19T13:27:26.656Z,6.50
2023-05-19T13:29:54.671Z,6.50
2023-05-19T13:32:28.277Z,6.20
2023-05-19T13:35:00.581Z,6.50
2023-05-19T13:37:29.683Z,8.40
2023-05-19T13:40:01.115Z,5.70
2023-05-19T13:42:29.321Z,4.90
2023-05-19T13:44:57.853Z,5.10
2023-05-19T13:47:30.253Z,4.60
2023-05-19T13:49:58.466Z,4.70
2023-05-19T13:52:30.284Z,4.50
2023-05-19T13:55:09.872Z,4.80
2023-05-19T13:57:38.421Z,5.80
2023-05-19T14:00:07.728Z,5.80
2023-05-19T14:02:44.517Z,5.60
2023-05-19T14:05:14.339Z,5.80
2023-05-19T14:07:42.476Z,5.70
2023-05-19T14:10:10.971Z,5.60
2023-05-19T14:12:55.066Z,5.20
2023-05-19T14:15:28.950Z,5.30
2023-05-19T14:17:58.519Z,5.30
2023-05-19T14:20:29.161Z,5.80
2023-05-19T14:22:57.793Z,6.00
2023-05-19T14:25:25.779Z,5.60
2023-05-19T14:27:55.567Z,5.90
2023-05-19T14:30:23.661Z,5.80
2023-05-19T14:32:52.522Z,4.70
2023-05-19T14:35:22.287Z,5.40
2023-05-19T14:37:51.081Z,5.20
2023-05-19T14:40:20.145Z,5.20
2023-05-19T14:42:48.250Z,5.30
2023-05-19T14:45:16.520Z,4.80
2023-05-19T14:47:44.657Z,5.20
2023-05-19T14:50:12.882Z,5.20
2023-05-19T14:52:40.919Z,4.80
2023-05-19T14:55:10.838Z,5.30
2023-05-19T14:57:39.061Z,4.90
2023-05-19T15:00:09.847Z,4.60
2023-05-19T15:02:38.289Z,5.50
2023-05-19T15:05:08.134Z,4.70
2023-05-19T15:10:17.469Z,4.50
2023-05-19T15:12:47.801Z,5.40
2023-05-19T15:15:18.019Z,5.00
2023-05-19T15:17:47.445Z,4.90
2023-05-19T15:20:15.820Z,5.30
2023-05-19T15:22:44.656Z,5.20
2023-05-19T15:25:15.345Z,5.10
2023-05-19T15:27:45.759Z,5.10
2023-05-19T15:30:16.431Z,5.70
2023-05-19T15:32:44.706Z,5.00
2023-05-19T15:35:12.902Z,5.20
2023-05-19T15:37:41.060Z,6.30
2023-05-19T15:40:10.644Z,5.20
2023-05-19T15:42:42.959Z,5.40
2023-05-19T15:45:11.118Z,5.30
2023-05-19T15:47:41.660Z,5.00
2023-05-19T15:50:12.117Z,4.60
2023-05-19T15:52:48.186Z,5.40
2023-05-19T15:55:36.536Z,5.20
2023-05-19T15:58:04.521Z,4.50
2023-05-19T16:00:33.063Z,4.90
2023-05-19T16:03:01.850Z,4.80
2023-05-19T16:05:56.746Z,4.70
2023-05-19T16:08:45.710Z,4.60
2023-05-19T16:11:31.076Z,5.60
2023-05-19T16:13:59.593Z,5.20
2023-05-19T16:16:28.169Z,5.00
2023-05-19T16:19:23.674Z,4.50
2023-05-19T16:22:11.570Z,5.40
2023-05-19T16:24:40.517Z,5.70
2023-05-19T16:27:09.217Z,5.30
2023-05-19T16:29:42.168Z,5.30
2023-05-19T16:32:18.602Z,5.40
2023-05-19T16:34:47.946Z,5.40
2023-05-19T16:37:16.033Z,5.10
2023-05-19T16:39:47.812Z,5.40
2023-05-19T16:42:16.255Z,6.70
2023-05-19T16:44:44.642Z,5.90
2023-05-19T16:47:14.291Z,5.90
2023-05-19T16:49:43.713Z,6.70
2023-05-19T16:52:13.058Z,6.10
2023-05-19T16:54:43.386Z,6.10
2023-05-19T16:57:16.023Z,5.50
2023-05-19T16:59:45.474Z,6.30
2023-05-19T17:02:14.675Z,5.50
2023-05-19T17:04:42.986Z,7.00
2023-05-19T17:07:17.824Z,6.20
2023-05-19T17:09:48.914Z,5.60
2023-05-19T17:12:20.327Z,5.50
2023-05-19T17:14:50.024Z,7.20
2023-05-19T17:17:21.076Z,9.30
2023-05-19T17:19:50.514Z,12.10
2023-05-19T17:22:19.483Z,8.60
2023-05-19T17:24:49.888Z,7.80
2023-05-19T17:27:18.437Z,6.80
2023-05-19T17:29:46.632Z,5.80
2023-05-19T17:32:14.757Z,6.20
2023-05-19T17:34:43.562Z,5.70
2023-05-19T17:37:17.149Z,5.40
2023-05-19T17:39:45.569Z,5.20
2023-05-19T17:42:13.808Z,5.30
2023-05-19T17:44:42.703Z,5.70
2023-05-19T17:47:10.821Z,5.30
2023-05-19T17:49:40.280Z,5.40
2023-05-19T17:52:09.658Z,5.20
2023-05-19T17:54:49.033Z,4.20
2023-05-19T17:57:21.370Z,4.80
2023-05-19T17:59:50.211Z,5.00
2023-05-19T18:02:18.915Z,4.00
2023-05-19T18:04:49.132Z,4.20
2023-05-19T18:07:18.120Z,4.40
2023-05-19T18:09:47.506Z,3.50
2023-05-19T18:12:15.811Z,4.00
2023-05-19T18:14:47.040Z,4.40
2023-05-19T18:17:18.603Z,4.50
2023-05-19T18:19:50.119Z,5.00
2023-05-19T18:22:43.210Z,4.50
2023-05-19T18:27:43.792Z,4.10
2023-05-19T18:30:12.901Z,4.50
2023-05-19T18:32:41.913Z,3.80
2023-05-19T18:35:10.523Z,4.20
2023-05-19T18:37:39.705Z,4.10
2023-05-19T18:40:10.368Z,4.30
2023-05-19T18:42:40.896Z,4.80
2023-05-19T18:45:11.171Z,4.90
2023-05-19T18:47:40.572Z,4.70
2023-05-19T18:50:08.986Z,5.30
2023-05-19T18:52:37.210Z,4.90
2023-05-19T18:55:06.716Z,5.60
2023-05-19T18:57:35.115Z,4.80
2023-05-19T19:00:04.326Z,5.50
2023-05-19T19:02:32.562Z,5.60
2023-05-19T19:05:04.441Z,5.80
2023-05-19T19:07:42.961Z,5.80
2023-05-19T19:10:11.983Z,5.80
2023-05-19T19:12:40.329Z,5.10
2023-05-19T19:15:09.390Z,5.20
2023-05-19T19:17:40.586Z,5.10
2023-05-19T19:20:09.627Z,5.60
2023-05-19T19:22:38.107Z,5.00
2023-05-19T19:25:07.683Z,6.10
2023-05-19T19:27:36.798Z,4.70
2023-05-19T19:30:08.191Z,5.00
2023-05-19T19:32:37.647Z,5.30
2023-05-19T19:35:06.291Z,5.10
2023-05-19T19:37:35.658Z,5.10
2023-05-19T19:40:04.706Z,5.40
2023-05-19T19:42:33.243Z,5.30
2023-05-19T19:45:02.987Z,4.90
2023-05-19T19:47:32.289Z,5.40
2023-05-19T19:50:04.941Z,5.20
2023-05-19T19:52:33.412Z,4.70
2023-05-19T19:55:03.096Z,5.30
2023-05-19T19:57:33.537Z,5.10
2023-05-19T20:00:08.048Z,5.40
2023-05-19T20:02:43.140Z,5.20
2023-05-19T20:05:20.636Z,5.00
2023-05-19T20:07:49.800Z,4.90
2023-05-19T20:10:19.820Z,5.80
2023-05-19T20:12:48.049Z,6.20
2023-05-19T20:15:16.463Z,5.40
2023-05-19T20:17:45.253Z,6.30
2023-05-19T20:20:16.570Z,6.00
2023-05-19T20:22:45.650Z,5.80
2023-05-19T20:25:15.876Z,6.10
2023-05-19T20:27:47.384Z,6.00
2023-05-19T20:30:17.802Z,5.50
2023-05-19T20:32:51.994Z,5.80
2023-05-19T20:35:21.881Z,4.70
2023-05-19T20:37:50.007Z,5.20
2023-05-19T20:40:18.337Z,6.40
2023-05-19T20:43:04.531Z,5.80
2023-05-19T20:45:33.133Z,5.40
2023-05-19T20:48:03.227Z,5.40
2023-05-19T20:50:32.988Z,6.30
2023-05-19T20:53:02.679Z,5.50
2023-05-19T20:55:31.104Z,6.30
2023-05-19T20:57:59.532Z,5.60
2023-05-19T21:00:29.672Z,6.50
2023-05-19T21:02:59.009Z,5.40
2023-05-19T21:05:27.492Z,5.60
2023-05-19T21:07:56.651Z,6.00
2023-05-19T21:10:25.480Z,5.20
2023-05-19T21:12:54.518Z,6.00
2023-05-19T21:15:24.146Z,6.60
2023-05-19T21:17:52.390Z,5.40
2023-05-19T21:20:20.920Z,6.10
2023-05-19T21:22:49.069Z,5.60
2023-05-19T21:25:17.112Z,6.40
2023-05-19T21:27:45.914Z,5.80
2023-05-19T21:30:14.193Z,5.80
2023-05-19T21:32:42.965Z,6.20
2023-05-19T21:35:11.790Z,6.30
2023-05-19T21:37:39.861Z,6.50
2023-05-19T21:40:09.217Z,7.30
2023-05-19T21:42:37.454Z,6.50
2023-05-19T21:45:10.816Z,6.80
2023-05-19T21:47:48.624Z,6.30
2023-05-19T21:50:25.213Z,7.20
2023-05-19T21:53:07.398Z,6.70
2023-05-19T21:55:44.394Z,6.20
2023-05-19T21:58:12.696Z,6.20
2023-05-19T22:00:41.110Z,6.50
2023-05-19T22:03:09.623Z,6.50
2023-05-19T22:05:39.184Z,6.50
2023-05-19T22:08:08.081Z,6.70
2023-05-19T22:10:36.833Z,7.40
2023-05-19T22:13:05.348Z,6.60
2023-05-19T22:15:33.534Z,6.60
2023-05-19T22:18:01.800Z,6.10
2023-05-19T22:20:30.027Z,6.50
2023-05-19T22:22:58.885Z,7.10
2023-05-19T22:25:34.961Z,6.70
2023-05-19T22:28:08.548Z,6.10
2023-05-19T22:30:42.503Z,7.60
2023-05-19T22:33:25.576Z,7.30
2023-05-19T22:35:54.275Z,7.70
2023-05-19T22:38:29.623Z,6.00
2023-05-19T22:41:00.943Z,6.20
2023-05-19T22:43:41.513Z,7.70
2023-05-19T22:46:21.726Z,7.50
2023-05-19T22:48:55.187Z,7.30
2023-05-19T22:51:24.262Z,6.70
2023-05-19T22:53:56.947Z,7.00
2023-05-19T22:56:31.588Z,7.30
2023-05-19T22:59:21.137Z,7.10
2023-05-19T23:01:51.644Z,7.30
2023-05-19T23:04:21.071Z,6.60
2023-05-19T23:06:50.589Z,6.90
2023-05-19T23:09:19.176Z,7.00
2023-05-19T23:11:51.568Z,6.40
2023-05-19T23:14:25.557Z,6.90
2023-05-19T23:16:54.092Z,6.50
2023-05-19T23:19:24.013Z,7.00
2023-05-19T23:21:52.632Z,7.20
2023-05-19T23:25:05.889Z,7.50
2023-05-19T23:27:36.640Z,7.20
2023-05-19T23:30:06.013Z,6.50
2023-05-19T23:32:34.852Z,6.70
2023-05-19T23:35:16.117Z,6.50
2023-05-19T23:37:56.342Z,7.70
2023-05-19T23:40:24.835Z,6.90
2023-05-19T23:42:54.072Z,7.20
2023-05-19T23:45:23.628Z,7.40
2023-05-19T23:47:53.571Z,7.90
2023-05-19T23:50:24.330Z,7.00
2023-05-19T23:53:01.422Z,8.10
2023-05-19T23:55:31.806Z,6.50
2023-05-19T23:58:05.506Z,6.30
